createdAt,value
2022-12-27T00:00:03.342Z,981.20
2022-12-27T00:01:03.448Z,981.06
2022-12-27T00:02:03.333Z,981.20
2022-12-27T00:03:03.310Z,981.04
2022-12-27T00:04:03.158Z,981.26
2022-12-27T00:05:03.100Z,981.15
2022-12-27T00:06:03.165Z,981.18
2022-12-27T00:07:03.136Z,981.38
2022-12-27T00:08:03.139Z,981.24
2022-12-27T00:09:03.158Z,981.24
2022-12-27T00:10:03.426Z,981.38
2022-12-27T00:11:03.320Z,981.27
2022-12-27T00:12:03.396Z,981.27
2022-12-27T00:13:03.259Z,981.46
2022-12-27T00:14:03.245Z,981.44
2022-12-27T00:15:03.404Z,981.33
2022-12-27T00:16:08.447Z,981.47
2022-12-27T00:17:03.235Z,981.50
2022-12-27T00:18:03.275Z,981.68
2022-12-27T00:19:03.221Z,981.53
2022-12-27T00:20:11.527Z,981.74
2022-12-27T00:21:03.238Z,981.60
2022-12-27T00:22:03.180Z,981.80
2022-12-27T00:23:03.108Z,981.77
2022-12-27T00:24:02.984Z,981.74
2022-12-27T00:25:03.035Z,981.69
2022-12-27T00:26:02.937Z,981.80
2022-12-27T00:27:02.935Z,981.72
2022-12-27T00:28:03.833Z,981.86
2022-12-27T00:29:03.767Z,981.81
2022-12-27T00:30:03.702Z,981.81
2022-12-27T00:31:03.682Z,981.89
2022-12-27T00:32:03.867Z,981.81
2022-12-27T00:33:03.674Z,981.92
2022-12-27T00:34:03.581Z,981.72
2022-12-27T00:35:03.484Z,981.89
2022-12-27T00:36:03.557Z,981.78
2022-12-27T00:37:03.604Z,981.87
2022-12-27T00:38:03.591Z,981.98
2022-12-27T00:39:03.568Z,981.84
2022-12-27T00:40:03.432Z,981.93
2022-12-27T00:41:03.512Z,981.93
2022-12-27T00:42:03.405Z,982.07
2022-12-27T00:43:03.432Z,982.07
2022-12-27T00:44:03.406Z,982.10
2022-12-27T00:45:03.367Z,982.30
2022-12-27T00:46:03.457Z,982.21
2022-12-27T00:47:03.362Z,982.24
2022-12-27T00:48:03.402Z,982.19
2022-12-27T00:49:03.729Z,982.39
2022-12-27T00:50:03.768Z,982.30
2022-12-27T00:51:03.842Z,982.25
2022-12-27T00:52:02.934Z,982.39
2022-12-27T00:53:02.943Z,982.45
2022-12-27T00:54:03.825Z,982.42
2022-12-27T00:55:03.051Z,982.45
2022-12-27T00:56:03.029Z,982.56
2022-12-27T00:57:03.027Z,982.54
2022-12-27T00:58:03.490Z,982.54
2022-12-27T00:59:03.408Z,982.71
2022-12-27T01:00:10.741Z,982.74
2022-12-27T01:01:03.432Z,982.65
2022-12-27T01:02:03.541Z,982.79
2022-12-27T01:03:03.264Z,982.81
2022-12-27T01:04:03.399Z,982.90
2022-12-27T01:05:03.300Z,982.84
2022-12-27T01:06:03.261Z,982.82
2022-12-27T01:07:03.275Z,982.99
2022-12-27T01:08:03.185Z,982.93
2022-12-27T01:09:03.120Z,982.96
2022-12-27T01:10:03.554Z,983.10
2022-12-27T01:11:03.309Z,982.96
2022-12-27T01:12:03.271Z,982.96
2022-12-27T01:13:03.171Z,983.05
2022-12-27T01:14:03.094Z,983.13
2022-12-27T01:15:02.972Z,983.10
2022-12-27T01:16:03.082Z,983.22
2022-12-27T01:17:03.229Z,983.22
2022-12-27T01:18:03.106Z,983.22
2022-12-27T01:19:03.169Z,983.10
2022-12-27T01:20:03.182Z,983.30
2022-12-27T01:21:03.182Z,983.16
2022-12-27T01:22:03.112Z,982.99
2022-12-27T01:23:03.050Z,983.30
2022-12-27T01:24:03.114Z,983.11
2022-12-27T01:25:03.237Z,983.16
2022-12-27T01:26:03.122Z,983.19
2022-12-27T01:27:03.196Z,983.11
2022-12-27T01:28:03.156Z,983.22
2022-12-27T01:29:03.473Z,983.14
2022-12-27T01:30:03.249Z,983.22
2022-12-27T01:31:03.272Z,983.25
2022-12-27T01:32:03.352Z,983.23
2022-12-27T01:33:03.189Z,983.28
2022-12-27T01:34:03.060Z,983.23
2022-12-27T01:35:03.065Z,983.17
2022-12-27T01:36:03.076Z,983.28
2022-12-27T01:37:03.125Z,983.28
2022-12-27T01:38:03.084Z,983.28
2022-12-27T01:39:03.093Z,983.34
2022-12-27T01:40:03.178Z,983.29
2022-12-27T01:41:03.122Z,983.29
2022-12-27T01:42:03.134Z,983.39
2022-12-27T01:43:03.166Z,983.45
2022-12-27T01:44:03.203Z,983.42
2022-12-27T01:45:03.345Z,983.48
2022-12-27T01:46:03.386Z,983.42
2022-12-27T01:47:03.306Z,983.56
2022-12-27T01:48:03.345Z,983.45
2022-12-27T01:49:05.590Z,983.50
2022-12-27T01:50:03.361Z,983.59
2022-12-27T01:51:03.291Z,983.53
2022-12-27T01:52:03.368Z,983.53
2022-12-27T01:53:03.297Z,983.51
2022-12-27T01:54:03.299Z,983.56
2022-12-27T01:55:03.264Z,983.62
2022-12-27T01:56:03.181Z,983.42
2022-12-27T01:57:03.103Z,983.54
2022-12-27T01:58:03.015Z,983.56
2022-12-27T01:59:02.971Z,983.45
2022-12-27T02:00:02.984Z,983.54
2022-12-27T02:01:02.981Z,983.62
2022-12-27T02:02:04.213Z,983.40
2022-12-27T02:03:03.885Z,983.40
2022-12-27T02:04:03.721Z,983.48
2022-12-27T02:05:03.627Z,983.48
2022-12-27T02:06:03.656Z,983.43
2022-12-27T02:07:03.617Z,983.40
2022-12-27T02:08:03.605Z,983.33
2022-12-27T02:09:03.531Z,983.35
2022-12-27T02:10:03.477Z,983.40
2022-12-27T02:11:03.475Z,983.37
2022-12-27T02:12:03.584Z,983.35
2022-12-27T02:13:03.474Z,983.40
2022-12-27T02:14:03.474Z,983.35
2022-12-27T02:15:03.424Z,983.33
2022-12-27T02:16:03.858Z,983.30
2022-12-27T02:17:04.029Z,983.33
2022-12-27T02:18:03.869Z,983.52
2022-12-27T02:19:03.767Z,983.52
2022-12-27T02:20:03.765Z,983.49
2022-12-27T02:21:03.661Z,983.52
2022-12-27T02:22:03.511Z,983.52
2022-12-27T02:23:03.471Z,983.61
2022-12-27T02:24:03.836Z,983.47
2022-12-27T02:25:03.848Z,983.66
2022-12-27T02:26:03.532Z,983.63
2022-12-27T02:27:03.511Z,983.58
2022-12-27T02:28:03.330Z,983.67
2022-12-27T02:29:03.843Z,983.69
2022-12-27T02:30:03.236Z,983.58
2022-12-27T02:31:03.113Z,983.58
2022-12-27T02:32:02.980Z,983.64
2022-12-27T02:33:02.987Z,983.61
2022-12-27T02:34:02.941Z,983.67
2022-12-27T02:35:03.780Z,983.78
2022-12-27T02:36:03.737Z,983.78
2022-12-27T02:37:03.805Z,983.89
2022-12-27T02:38:03.030Z,983.72
2022-12-27T02:39:03.810Z,983.70
2022-12-27T02:40:03.687Z,983.95
2022-12-27T02:41:03.588Z,983.95
2022-12-27T02:42:03.513Z,983.89
2022-12-27T02:43:03.404Z,983.84
2022-12-27T02:44:03.413Z,983.76
2022-12-27T02:45:03.289Z,983.81
2022-12-27T02:46:03.157Z,983.84
2022-12-27T02:47:03.086Z,983.95
2022-12-27T02:48:02.981Z,983.84
2022-12-27T02:49:03.896Z,983.92
2022-12-27T02:50:03.754Z,983.84
2022-12-27T02:51:03.791Z,983.81
2022-12-27T02:52:03.682Z,983.67
2022-12-27T02:53:03.774Z,983.79
2022-12-27T02:54:03.449Z,983.87
2022-12-27T02:55:03.352Z,983.82
2022-12-27T02:56:03.386Z,983.73
2022-12-27T02:57:03.351Z,983.93
2022-12-27T02:58:03.556Z,983.65
2022-12-27T02:59:03.531Z,983.82
2022-12-27T03:00:03.447Z,983.79
2022-12-27T03:01:03.482Z,983.90
2022-12-27T03:02:03.708Z,983.82
2022-12-27T03:03:03.546Z,984.04
2022-12-27T03:04:03.008Z,983.93
2022-12-27T03:05:03.064Z,983.85
2022-12-27T03:06:02.981Z,983.90
2022-12-27T03:07:03.816Z,983.82
2022-12-27T03:08:03.675Z,983.99
2022-12-27T03:09:03.683Z,983.93
2022-12-27T03:10:03.736Z,983.88
2022-12-27T03:11:03.554Z,983.94
2022-12-27T03:12:03.402Z,983.96
2022-12-27T03:13:03.439Z,984.05
2022-12-27T03:14:03.324Z,983.96
2022-12-27T03:15:03.402Z,983.96
2022-12-27T03:16:03.365Z,983.94
2022-12-27T03:17:03.156Z,984.05
2022-12-27T03:18:03.103Z,984.05
2022-12-27T03:19:02.971Z,984.02
2022-12-27T03:20:03.859Z,983.99
2022-12-27T03:21:03.798Z,983.94
2022-12-27T03:22:03.626Z,983.88
2022-12-27T03:23:03.567Z,983.88
2022-12-27T03:24:03.611Z,983.94
2022-12-27T03:25:03.428Z,983.88
2022-12-27T03:26:03.292Z,983.86
2022-12-27T03:27:03.228Z,983.97
2022-12-27T03:28:03.049Z,983.88
2022-12-27T03:29:02.904Z,984.00
2022-12-27T03:30:03.799Z,983.94
2022-12-27T03:31:03.969Z,984.00
2022-12-27T03:32:03.905Z,983.94
2022-12-27T03:33:03.677Z,984.00
2022-12-27T03:34:03.646Z,984.03
2022-12-27T03:35:03.631Z,984.11
2022-12-27T03:36:03.477Z,984.14
2022-12-27T03:37:03.746Z,983.97
2022-12-27T03:38:03.761Z,983.97
2022-12-27T03:39:03.758Z,983.97
2022-12-27T03:40:03.563Z,983.97
2022-12-27T03:41:03.741Z,984.03
2022-12-27T03:42:03.492Z,984.08
2022-12-27T03:43:03.317Z,984.11
2022-12-27T03:44:03.229Z,984.03
2022-12-27T03:45:03.253Z,984.22
2022-12-27T03:46:03.143Z,984.20
2022-12-27T03:47:03.077Z,984.08
2022-12-27T03:48:03.100Z,984.17
2022-12-27T03:49:03.035Z,984.28
2022-12-27T03:50:02.959Z,984.20
2022-12-27T03:51:03.005Z,984.14
2022-12-27T03:52:08.946Z,984.17
2022-12-27T03:53:03.832Z,984.23
2022-12-27T03:54:03.633Z,984.06
2022-12-27T03:55:03.694Z,984.14
2022-12-27T03:56:03.569Z,984.28
2022-12-27T03:57:03.542Z,984.09
2022-12-27T03:58:03.398Z,984.20
2022-12-27T03:59:03.338Z,984.34
2022-12-27T04:00:03.246Z,984.20
2022-12-27T04:01:03.159Z,984.34
2022-12-27T04:02:03.312Z,984.20
2022-12-27T04:03:03.215Z,984.20
2022-12-27T04:04:02.908Z,984.15
2022-12-27T04:05:02.961Z,984.20
2022-12-27T04:06:03.761Z,984.20
2022-12-27T04:07:03.753Z,984.40
2022-12-27T04:08:03.648Z,984.40
2022-12-27T04:09:03.580Z,984.51
2022-12-27T04:10:03.466Z,984.40
2022-12-27T04:11:03.440Z,984.12
2022-12-27T04:12:03.434Z,984.23
2022-12-27T04:13:03.206Z,984.40
2022-12-27T04:14:03.172Z,984.40
2022-12-27T04:15:03.007Z,984.29
2022-12-27T04:16:03.316Z,984.26
2022-12-27T04:17:03.540Z,984.29
2022-12-27T04:18:03.434Z,984.29
2022-12-27T04:19:08.384Z,984.35
2022-12-27T04:20:09.028Z,984.23
2022-12-27T04:21:08.728Z,984.40
2022-12-27T04:22:03.388Z,984.32
2022-12-27T04:23:03.335Z,984.40
2022-12-27T04:24:03.392Z,984.26
2022-12-27T04:25:03.066Z,984.29
2022-12-27T04:26:02.926Z,984.37
2022-12-27T04:27:03.795Z,984.29
2022-12-27T04:28:03.779Z,984.32
2022-12-27T04:29:03.649Z,984.29
2022-12-27T04:30:03.465Z,984.37
2022-12-27T04:31:03.555Z,984.40
2022-12-27T04:32:03.403Z,984.29
2022-12-27T04:33:03.489Z,984.40
2022-12-27T04:34:03.516Z,984.24
2022-12-27T04:35:03.286Z,984.46
2022-12-27T04:36:06.803Z,984.29
2022-12-27T04:37:03.290Z,984.15
2022-12-27T04:38:03.269Z,984.32
2022-12-27T04:39:03.160Z,984.38
2022-12-27T04:40:03.139Z,984.21
2022-12-27T04:41:03.122Z,984.29
2022-12-27T04:42:02.989Z,984.29
2022-12-27T04:43:03.852Z,984.35
2022-12-27T04:44:03.765Z,984.21
2022-12-27T04:45:03.638Z,984.35
2022-12-27T04:46:03.737Z,984.24
2022-12-27T04:47:03.762Z,984.18
2022-12-27T04:48:03.659Z,984.13
2022-12-27T04:49:03.601Z,984.32
2022-12-27T04:50:03.421Z,984.24
2022-12-27T04:51:03.349Z,984.27
2022-12-27T04:52:03.269Z,984.46
2022-12-27T04:53:03.182Z,984.32
2022-12-27T04:54:03.132Z,984.32
2022-12-27T04:55:03.151Z,984.43
2022-12-27T04:56:02.883Z,984.35
2022-12-27T04:57:03.847Z,984.41
2022-12-27T04:58:03.810Z,984.35
2022-12-27T04:59:03.653Z,984.32
2022-12-27T05:00:03.599Z,984.41
2022-12-27T05:01:05.701Z,984.30
2022-12-27T05:02:04.183Z,984.35
2022-12-27T05:03:08.848Z,984.35
2022-12-27T05:04:03.431Z,984.38
2022-12-27T05:05:03.344Z,984.21
2022-12-27T05:06:03.243Z,984.13
2022-12-27T05:07:03.105Z,984.41
2022-12-27T05:08:03.024Z,984.27
2022-12-27T05:09:02.962Z,984.32
2022-12-27T05:10:03.017Z,984.27
2022-12-27T05:11:03.022Z,984.27
2022-12-27T05:12:03.379Z,984.30
2022-12-27T05:13:09.453Z,984.24
2022-12-27T05:14:03.766Z,984.27
2022-12-27T05:15:03.624Z,984.13
2022-12-27T05:16:03.777Z,984.35
2022-12-27T05:17:03.727Z,984.21
2022-12-27T05:18:03.598Z,984.32
2022-12-27T05:19:03.553Z,984.32
2022-12-27T05:20:08.581Z,984.32
2022-12-27T05:21:03.301Z,984.38
2022-12-27T05:22:03.694Z,984.38
2022-12-27T05:23:03.228Z,984.29
2022-12-27T05:24:06.242Z,984.38
2022-12-27T05:25:03.259Z,984.49
2022-12-27T05:26:03.235Z,984.40
2022-12-27T05:27:03.024Z,984.46
2022-12-27T05:28:03.125Z,984.57
2022-12-27T05:29:03.116Z,984.49
2022-12-27T05:30:03.104Z,984.68
2022-12-27T05:31:03.423Z,984.54
2022-12-27T05:32:12.727Z,984.60
2022-12-27T05:33:03.230Z,984.57
2022-12-27T05:34:03.131Z,984.65
2022-12-27T05:35:03.139Z,984.52
2022-12-27T05:36:03.110Z,984.49
2022-12-27T05:37:02.906Z,984.57
2022-12-27T05:38:03.832Z,984.46
2022-12-27T05:39:03.915Z,984.66
2022-12-27T05:40:03.941Z,984.57
2022-12-27T05:41:03.845Z,984.63
2022-12-27T05:42:03.866Z,984.43
2022-12-27T05:43:03.878Z,984.54
2022-12-27T05:44:07.886Z,984.43
2022-12-27T05:45:03.765Z,984.54
2022-12-27T05:46:03.854Z,984.57
2022-12-27T05:47:03.864Z,984.40
2022-12-27T05:48:03.599Z,984.46
2022-12-27T05:49:03.491Z,984.40
2022-12-27T05:50:03.407Z,984.35
2022-12-27T05:51:03.459Z,984.32
2022-12-27T05:52:03.314Z,984.40
2022-12-27T05:53:03.395Z,984.46
2022-12-27T05:54:03.206Z,984.40
2022-12-27T05:55:03.133Z,984.40
2022-12-27T05:56:03.190Z,984.35
2022-12-27T05:57:03.009Z,984.51
2022-12-27T05:58:02.978Z,984.46
2022-12-27T05:59:02.930Z,984.68
2022-12-27T06:00:03.861Z,984.60
2022-12-27T06:01:03.824Z,984.57
2022-12-27T06:02:03.983Z,984.68
2022-12-27T06:03:04.023Z,984.57
2022-12-27T06:04:04.254Z,984.62
2022-12-27T06:05:03.503Z,984.68
2022-12-27T06:06:03.418Z,984.57
2022-12-27T06:07:03.319Z,984.59
2022-12-27T06:08:03.172Z,984.68
2022-12-27T06:09:03.190Z,984.57
2022-12-27T06:10:03.182Z,984.59
2022-12-27T06:11:03.201Z,984.65
2022-12-27T06:12:03.225Z,984.62
2022-12-27T06:13:03.041Z,984.65
2022-12-27T06:14:03.016Z,984.73
2022-12-27T06:15:02.989Z,984.70
2022-12-27T06:16:04.176Z,984.73
2022-12-27T06:17:03.899Z,984.89
2022-12-27T06:18:03.960Z,984.81
2022-12-27T06:19:03.700Z,984.81
2022-12-27T06:20:03.603Z,984.92
2022-12-27T06:21:03.599Z,984.92
2022-12-27T06:22:03.707Z,984.89
2022-12-27T06:23:03.513Z,984.97
2022-12-27T06:24:03.430Z,984.92
2022-12-27T06:25:03.315Z,984.97
2022-12-27T06:26:03.223Z,984.92
2022-12-27T06:27:03.268Z,984.92
2022-12-27T06:28:03.131Z,984.81
2022-12-27T06:29:03.146Z,984.92
2022-12-27T06:30:03.122Z,984.95
2022-12-27T06:31:03.857Z,984.92
2022-12-27T06:32:09.155Z,985.03
2022-12-27T06:33:03.674Z,985.00
2022-12-27T06:34:03.684Z,985.03
2022-12-27T06:35:03.569Z,984.95
2022-12-27T06:36:03.561Z,985.00
2022-12-27T06:37:03.821Z,985.06
2022-12-27T06:38:03.929Z,984.95
2022-12-27T06:39:03.706Z,985.06
2022-12-27T06:40:03.562Z,985.03
2022-12-27T06:41:03.519Z,985.17
2022-12-27T06:42:03.301Z,985.17
2022-12-27T06:43:03.221Z,984.92
2022-12-27T06:44:03.120Z,984.94
2022-12-27T06:45:03.104Z,985.03
2022-12-27T06:46:03.414Z,985.05
2022-12-27T06:47:03.312Z,985.03
2022-12-27T06:48:02.879Z,985.02
2022-12-27T06:49:03.800Z,985.16
2022-12-27T06:50:03.655Z,984.94
2022-12-27T06:51:03.582Z,984.97
2022-12-27T06:52:03.595Z,985.08
2022-12-27T06:53:03.672Z,985.13
2022-12-27T06:54:03.499Z,985.02
2022-12-27T06:55:02.868Z,985.16
2022-12-27T06:56:03.787Z,985.08
2022-12-27T06:57:03.935Z,985.11
2022-12-27T06:58:03.701Z,985.24
2022-12-27T06:59:03.601Z,985.40
2022-12-27T07:00:03.665Z,985.22
2022-12-27T07:01:03.537Z,985.22
2022-12-27T07:02:04.145Z,985.35
2022-12-27T07:03:03.639Z,985.35
2022-12-27T07:04:03.292Z,985.37
2022-12-27T07:05:03.393Z,985.43
2022-12-27T07:06:03.236Z,985.43
2022-12-27T07:07:03.622Z,985.37
2022-12-27T07:08:03.480Z,985.57
2022-12-27T07:09:03.504Z,985.46
2022-12-27T07:10:03.245Z,985.40
2022-12-27T07:11:03.038Z,985.51
2022-12-27T07:12:03.283Z,985.57
2022-12-27T07:13:03.798Z,985.62
2022-12-27T07:14:03.720Z,985.63
2022-12-27T07:15:03.682Z,985.51
2022-12-27T07:16:03.842Z,985.57
2022-12-27T07:17:03.481Z,985.60
2022-12-27T07:18:03.541Z,985.63
2022-12-27T07:19:03.701Z,985.68
2022-12-27T07:20:03.884Z,985.60
2022-12-27T07:21:03.485Z,985.71
2022-12-27T07:22:03.498Z,985.68
2022-12-27T07:23:03.501Z,985.71
2022-12-27T07:24:03.406Z,985.79
2022-12-27T07:25:03.284Z,985.79
2022-12-27T07:26:03.863Z,985.71
2022-12-27T07:27:04.131Z,985.74
2022-12-27T07:28:03.248Z,985.79
2022-12-27T07:29:03.042Z,985.76
2022-12-27T07:30:04.048Z,985.82
2022-12-27T07:31:03.503Z,985.74
2022-12-27T07:32:03.512Z,985.82
2022-12-27T07:33:03.157Z,985.68
2022-12-27T07:34:03.111Z,985.76
2022-12-27T07:35:03.016Z,985.79
2022-12-27T07:36:03.858Z,985.79
2022-12-27T07:37:03.759Z,985.74
2022-12-27T07:38:03.636Z,985.82
2022-12-27T07:39:03.623Z,985.82
2022-12-27T07:40:03.474Z,985.82
2022-12-27T07:41:03.374Z,985.76
2022-12-27T07:42:08.825Z,985.79
2022-12-27T07:43:03.210Z,985.76
2022-12-27T07:44:03.184Z,985.68
2022-12-27T07:45:03.278Z,985.73
2022-12-27T07:46:02.950Z,985.82
2022-12-27T07:47:03.768Z,985.93
2022-12-27T07:48:03.707Z,985.71
2022-12-27T07:49:03.739Z,985.82
2022-12-27T07:50:03.762Z,985.85
2022-12-27T07:51:03.687Z,985.96
2022-12-27T07:52:03.592Z,985.90
2022-12-27T07:53:03.588Z,985.90
2022-12-27T07:54:03.423Z,985.93
2022-12-27T07:55:03.361Z,985.87
2022-12-27T07:56:03.293Z,986.04
2022-12-27T07:57:03.212Z,985.84
2022-12-27T07:58:03.431Z,985.96
2022-12-27T07:59:03.410Z,985.98
2022-12-27T08:00:03.299Z,985.82
2022-12-27T08:01:03.282Z,985.87
2022-12-27T08:02:03.894Z,985.99
2022-12-27T08:03:03.093Z,985.93
2022-12-27T08:04:04.500Z,986.04
2022-12-27T08:05:03.714Z,986.07
2022-12-27T08:06:03.590Z,986.15
2022-12-27T08:07:03.571Z,985.99
2022-12-27T08:08:03.468Z,986.15
2022-12-27T08:09:03.741Z,985.99
2022-12-27T08:10:08.645Z,986.01
2022-12-27T08:11:11.228Z,986.26
2022-12-27T08:12:03.774Z,986.21
2022-12-27T08:13:03.557Z,986.24
2022-12-27T08:14:03.548Z,986.10
2022-12-27T08:15:03.443Z,986.21
2022-12-27T08:16:03.340Z,986.18
2022-12-27T08:17:03.282Z,986.15
2022-12-27T08:18:03.164Z,986.18
2022-12-27T08:19:08.845Z,986.35
2022-12-27T08:20:03.049Z,986.24
2022-12-27T08:21:02.905Z,986.29
2022-12-27T08:22:02.885Z,986.21
2022-12-27T08:23:03.840Z,986.26
2022-12-27T08:24:03.039Z,986.23
2022-12-27T08:25:03.808Z,986.35
2022-12-27T08:26:03.129Z,986.32
2022-12-27T08:27:03.189Z,986.15
2022-12-27T08:28:03.357Z,986.26
2022-12-27T08:29:02.993Z,986.29
2022-12-27T08:30:03.268Z,986.23
2022-12-27T08:31:03.418Z,986.26
2022-12-27T08:32:03.241Z,986.20
2022-12-27T08:33:03.152Z,986.09
2022-12-27T08:34:03.080Z,986.12
2022-12-27T08:35:52.507Z,986.17
2022-12-27T08:36:53.197Z,986.23
2022-12-27T08:37:03.427Z,986.26
2022-12-27T08:38:03.396Z,986.14
2022-12-27T08:39:03.275Z,986.12
2022-12-27T08:40:03.761Z,986.14
2022-12-27T08:41:03.289Z,986.20
2022-12-27T08:42:03.422Z,986.20
2022-12-27T08:43:03.185Z,986.23
2022-12-27T08:44:03.095Z,986.20
2022-12-27T08:45:03.088Z,986.09
2022-12-27T08:46:03.223Z,986.37
2022-12-27T08:47:02.939Z,986.36
2022-12-27T08:48:03.974Z,986.28
2022-12-27T08:49:03.808Z,986.28
2022-12-27T08:50:04.261Z,986.20
2022-12-27T08:51:13.794Z,985.97
2022-12-27T08:52:03.482Z,986.06
2022-12-27T08:53:03.347Z,986.00
2022-12-27T08:54:03.320Z,986.11
2022-12-27T08:55:03.208Z,986.20
2022-12-27T08:56:03.140Z,986.17
2022-12-27T08:57:02.977Z,986.11
2022-12-27T08:58:03.917Z,986.08
2022-12-27T08:59:03.930Z,986.22
2022-12-27T09:00:03.782Z,986.08
2022-12-27T09:01:03.634Z,986.22
2022-12-27T09:02:03.911Z,986.19
2022-12-27T09:03:03.245Z,986.08
2022-12-27T09:04:03.111Z,986.02
2022-12-27T09:05:03.286Z,986.19
2022-12-27T09:06:03.176Z,986.19
2022-12-27T09:07:03.159Z,986.14
2022-12-27T09:08:08.646Z,986.22
2022-12-27T09:09:03.007Z,986.33
2022-12-27T09:10:03.869Z,986.33
2022-12-27T09:11:09.021Z,986.16
2022-12-27T09:12:09.479Z,986.30
2022-12-27T09:13:03.621Z,986.33
2022-12-27T09:14:03.647Z,986.35
2022-12-27T09:15:03.594Z,986.30
2022-12-27T09:16:03.583Z,986.44
2022-12-27T09:17:03.479Z,986.27
2022-12-27T09:18:03.247Z,986.35
2022-12-27T09:19:03.400Z,986.41
2022-12-27T09:20:03.031Z,986.41
2022-12-27T09:21:03.095Z,986.46
2022-12-27T09:22:03.609Z,986.43
2022-12-27T09:23:03.242Z,986.52
2022-12-27T09:24:08.552Z,986.46
2022-12-27T09:25:03.951Z,986.49
2022-12-27T09:26:03.823Z,986.52
2022-12-27T09:27:03.875Z,986.46
2022-12-27T09:28:08.940Z,986.40
2022-12-27T09:29:03.589Z,986.46
2022-12-27T09:30:03.520Z,986.43
2022-12-27T09:31:08.879Z,986.43
2022-12-27T09:32:03.445Z,986.37
2022-12-27T09:33:03.377Z,986.48
2022-12-27T09:34:03.240Z,986.40
2022-12-27T09:35:03.141Z,986.54
2022-12-27T09:36:03.126Z,986.54
2022-12-27T09:37:03.182Z,986.58
2022-12-27T09:38:03.832Z,986.37
2022-12-27T09:39:04.375Z,986.42
2022-12-27T09:40:03.747Z,986.51
2022-12-27T09:41:03.733Z,986.51
2022-12-27T09:42:50.110Z,986.51
2022-12-27T09:43:27.762Z,986.51
2022-12-27T09:44:03.991Z,986.34
2022-12-27T09:45:03.476Z,986.42
2022-12-27T09:46:03.534Z,986.48
2022-12-27T09:47:03.120Z,986.48
2022-12-27T09:48:03.443Z,986.53
2022-12-27T09:49:03.264Z,986.53
2022-12-27T09:50:03.056Z,986.58
2022-12-27T09:51:02.908Z,986.44
2022-12-27T09:52:02.892Z,986.44
2022-12-27T09:53:03.838Z,986.57
2022-12-27T09:54:03.797Z,986.53
2022-12-27T09:55:05.897Z,986.60
2022-12-27T09:56:03.695Z,986.55
2022-12-27T09:57:20.806Z,986.65
2022-12-27T09:58:03.783Z,986.52
2022-12-27T09:59:03.712Z,986.62
2022-12-27T10:00:04.020Z,986.60
2022-12-27T10:01:03.440Z,986.59
2022-12-27T10:02:03.753Z,986.62
2022-12-27T10:03:03.356Z,986.62
2022-12-27T10:04:03.231Z,986.52
2022-12-27T10:05:24.970Z,986.68
2022-12-27T10:06:03.157Z,986.62
2022-12-27T10:07:03.334Z,986.70
2022-12-27T10:08:02.899Z,986.70
2022-12-27T10:09:03.814Z,986.59
2022-12-27T10:10:04.003Z,986.67
2022-12-27T10:11:03.599Z,986.73
2022-12-27T10:12:03.551Z,986.76
2022-12-27T10:13:03.384Z,986.65
2022-12-27T10:14:03.423Z,986.87
2022-12-27T10:15:03.533Z,986.76
2022-12-27T10:16:03.622Z,986.67
2022-12-27T10:17:03.350Z,986.73
2022-12-27T10:18:03.368Z,986.70
2022-12-27T10:19:03.334Z,986.81
2022-12-27T10:20:03.223Z,986.73
2022-12-27T10:21:03.195Z,986.70
2022-12-27T10:22:03.291Z,986.87
2022-12-27T10:23:06.892Z,986.73
2022-12-27T10:24:03.044Z,986.78
2022-12-27T10:25:03.836Z,986.70
2022-12-27T10:26:03.830Z,986.73
2022-12-27T10:27:03.686Z,986.84
2022-12-27T10:28:03.756Z,986.61
2022-12-27T10:29:03.657Z,986.59
2022-12-27T10:30:03.818Z,986.75
2022-12-27T10:31:03.650Z,986.78
2022-12-27T10:32:03.412Z,986.70
2022-12-27T10:33:03.267Z,986.81
2022-12-27T10:34:10.608Z,986.89
2022-12-27T10:35:03.420Z,986.87
2022-12-27T10:36:08.587Z,986.81
2022-12-27T10:37:08.987Z,986.67
2022-12-27T10:38:03.192Z,986.73
2022-12-27T10:39:03.100Z,986.78
2022-12-27T10:40:03.287Z,986.84
2022-12-27T10:41:04.113Z,986.78
2022-12-27T10:42:02.945Z,986.81
2022-12-27T10:43:03.987Z,986.81
2022-12-27T10:44:03.744Z,986.78
2022-12-27T10:45:03.666Z,986.70
2022-12-27T10:46:03.696Z,986.81
2022-12-27T10:47:03.773Z,986.58
2022-12-27T10:48:04.234Z,986.58
2022-12-27T10:49:27.032Z,986.72
2022-12-27T10:50:03.312Z,986.72
2022-12-27T10:51:03.273Z,986.58
2022-12-27T10:52:03.222Z,986.58
2022-12-27T10:53:03.060Z,986.64
2022-12-27T10:54:02.903Z,986.61
2022-12-27T10:55:03.830Z,986.69
2022-12-27T10:56:04.902Z,986.61
2022-12-27T10:57:03.715Z,986.75
2022-12-27T10:58:03.651Z,986.56
2022-12-27T10:59:03.580Z,986.67
2022-12-27T11:00:03.483Z,986.64
2022-12-27T11:01:03.623Z,986.69
2022-12-27T11:02:03.614Z,986.75
2022-12-27T11:03:03.738Z,986.81
2022-12-27T11:04:03.322Z,986.81
2022-12-27T11:05:03.163Z,986.78
2022-12-27T11:06:03.144Z,986.72
2022-12-27T11:07:03.040Z,986.81
2022-12-27T11:08:03.143Z,986.66
2022-12-27T11:09:03.928Z,986.72
2022-12-27T11:10:03.945Z,986.81
2022-12-27T11:11:04.149Z,986.66
2022-12-27T11:12:04.052Z,986.78
2022-12-27T11:13:03.674Z,986.83
2022-12-27T11:14:03.651Z,986.81
2022-12-27T11:15:03.727Z,986.81
2022-12-27T11:16:03.614Z,986.75
2022-12-27T11:17:03.475Z,986.83
2022-12-27T11:18:03.360Z,986.89
2022-12-27T11:19:03.390Z,987.09
2022-12-27T11:20:03.331Z,986.97
2022-12-27T11:21:03.470Z,986.95
2022-12-27T11:22:03.280Z,986.95
2022-12-27T11:23:03.180Z,987.06
2022-12-27T11:24:03.129Z,987.00
2022-12-27T11:25:03.489Z,986.92
2022-12-27T11:26:03.166Z,987.20
2022-12-27T11:27:03.021Z,987.06
2022-12-27T11:28:02.975Z,987.06
2022-12-27T11:29:03.886Z,987.17
2022-12-27T11:30:03.849Z,987.17
2022-12-27T11:31:04.310Z,987.17
2022-12-27T11:32:03.693Z,987.00
2022-12-27T11:33:03.608Z,987.03
2022-12-27T11:34:03.601Z,987.03
2022-12-27T11:35:08.682Z,987.03
2022-12-27T11:36:03.368Z,987.06
2022-12-27T11:37:03.606Z,987.00
2022-12-27T11:38:03.384Z,986.94
2022-12-27T11:39:08.280Z,986.89
2022-12-27T11:40:03.267Z,987.00
2022-12-27T11:41:03.153Z,986.94
2022-12-27T11:42:03.152Z,986.94
2022-12-27T11:43:03.496Z,987.06
2022-12-27T11:44:03.860Z,986.97
2022-12-27T11:45:03.822Z,987.00
2022-12-27T11:46:03.558Z,986.97
2022-12-27T11:47:03.637Z,986.91
2022-12-27T11:48:03.443Z,987.08
2022-12-27T11:49:03.327Z,986.94
2022-12-27T11:50:03.255Z,986.97
2022-12-27T11:51:03.245Z,986.97
2022-12-27T11:52:03.167Z,987.11
2022-12-27T11:53:03.145Z,987.03
2022-12-27T11:54:03.298Z,987.11
2022-12-27T11:55:03.151Z,986.97
2022-12-27T11:56:08.769Z,987.05
2022-12-27T11:57:02.945Z,987.05
2022-12-27T11:58:02.950Z,986.97
2022-12-27T11:59:03.913Z,986.94
2022-12-27T12:00:03.741Z,987.03
2022-12-27T12:01:06.184Z,987.17
2022-12-27T12:02:03.734Z,987.00
2022-12-27T12:03:03.939Z,987.05
2022-12-27T12:04:03.469Z,986.97
2022-12-27T12:05:04.178Z,987.00
2022-12-27T12:06:03.476Z,986.94
2022-12-27T12:07:03.360Z,986.99
2022-12-27T12:08:03.323Z,986.99
2022-12-27T12:09:03.756Z,986.99
2022-12-27T12:10:03.477Z,987.02
2022-12-27T12:11:04.027Z,986.93
2022-12-27T12:12:08.676Z,987.02
2022-12-27T12:13:03.437Z,987.05
2022-12-27T12:14:03.308Z,986.99
2022-12-27T12:15:03.246Z,987.04
2022-12-27T12:16:03.487Z,987.02
2022-12-27T12:17:03.240Z,987.07
2022-12-27T12:18:03.115Z,987.01
2022-12-27T12:19:08.144Z,987.21
2022-12-27T12:20:03.969Z,987.04
2022-12-27T12:21:03.721Z,987.13
2022-12-27T12:22:03.626Z,987.24
2022-12-27T12:23:03.639Z,987.10
2022-12-27T12:24:03.562Z,986.96
2022-12-27T12:25:03.919Z,987.13
2022-12-27T12:26:03.546Z,987.13
2022-12-27T12:27:03.587Z,987.01
2022-12-27T12:28:23.260Z,987.04